createdAt,value
2023-04-09T00:01:13.523Z,15.10
2023-04-09T00:03:40.655Z,11.48
2023-04-09T00:06:07.473Z,14.70
2023-04-09T00:08:33.869Z,13.25
2023-04-09T00:11:00.453Z,18.70
2023-04-09T00:13:38.651Z,14.43
2023-04-09T00:16:06.290Z,15.13
2023-04-09T00:18:32.741Z,13.38
2023-04-09T00:20:59.150Z,12.98
2023-04-09T00:23:25.570Z,14.60
2023-04-09T00:25:51.954Z,13.68
2023-04-09T00:28:18.388Z,12.35
2023-04-09T00:30:44.871Z,11.02
2023-04-09T00:33:11.292Z,13.45
2023-04-09T00:35:37.800Z,12.07
2023-04-09T00:38:04.338Z,12.32
2023-04-09T00:40:30.962Z,14.05
2023-04-09T00:42:57.491Z,14.88
2023-04-09T00:45:24.201Z,14.57
2023-04-09T00:47:51.273Z,11.60
2023-04-09T00:50:17.784Z,13.73
2023-04-09T00:52:44.497Z,14.00
2023-04-09T00:55:12.417Z,14.43
2023-04-09T00:57:38.992Z,13.80
2023-04-09T01:00:07.694Z,12.10
2023-04-09T01:02:34.638Z,12.93
2023-04-09T01:05:01.457Z,12.90
2023-04-09T01:07:43.141Z,12.77
2023-04-09T01:10:35.262Z,12.32
2023-04-09T01:13:31.622Z,13.23
2023-04-09T01:16:01.846Z,12.52
2023-04-09T01:18:55.598Z,13.23
2023-04-09T01:21:31.109Z,13.20
2023-04-09T01:24:19.033Z,14.05
2023-04-09T01:26:54.210Z,12.77
2023-04-09T01:29:25.629Z,15.20
2023-04-09T01:31:54.037Z,12.85
2023-04-09T01:34:20.739Z,12.82
2023-04-09T01:36:52.254Z,15.13
2023-04-09T01:39:19.261Z,11.32
2023-04-09T01:41:46.790Z,11.40
2023-04-09T01:44:13.911Z,13.70
2023-04-09T01:46:41.193Z,15.18
2023-04-09T01:49:09.052Z,14.23
2023-04-09T01:51:37.019Z,12.40
2023-04-09T01:54:04.308Z,11.48
2023-04-09T01:56:48.028Z,13.98
2023-04-09T01:59:15.638Z,11.80
2023-04-09T02:01:47.604Z,15.25
2023-04-09T02:04:22.705Z,12.02
2023-04-09T02:07:03.195Z,12.88
2023-04-09T02:09:31.830Z,11.40
2023-04-09T02:12:01.719Z,12.43
2023-04-09T02:14:30.268Z,14.50
2023-04-09T02:16:56.808Z,13.23
2023-04-09T02:19:23.266Z,14.13
2023-04-09T02:21:49.685Z,16.17
2023-04-09T02:24:16.078Z,13.10
2023-04-09T02:26:42.473Z,13.82
2023-04-09T02:29:08.861Z,12.63
2023-04-09T02:31:35.345Z,13.43
2023-04-09T02:34:02.013Z,10.18
2023-04-09T02:36:28.418Z,15.38
2023-04-09T02:38:55.108Z,12.82
2023-04-09T02:41:21.652Z,13.90
2023-04-09T02:43:48.119Z,12.75
2023-04-09T02:46:14.520Z,12.40
2023-04-09T02:48:40.953Z,13.80
2023-04-09T02:51:08.166Z,14.10
2023-04-09T02:53:34.609Z,13.10
2023-04-09T02:56:01.118Z,13.95
2023-04-09T02:58:27.715Z,10.70
2023-04-09T03:00:54.182Z,11.93
2023-04-09T03:03:20.748Z,12.23
2023-04-09T03:05:47.315Z,12.25
2023-04-09T03:08:13.744Z,11.77
2023-04-09T03:10:40.309Z,12.25
2023-04-09T03:13:06.769Z,11.13
2023-04-09T03:15:33.221Z,10.45
2023-04-09T03:17:59.795Z,14.63
2023-04-09T03:20:26.186Z,12.75
2023-04-09T03:22:52.588Z,10.30
2023-04-09T03:25:39.303Z,10.95
2023-04-09T03:28:11.971Z,12.88
2023-04-09T03:30:42.529Z,10.98
2023-04-09T03:33:09.162Z,12.57
2023-04-09T03:35:45.670Z,11.65
2023-04-09T03:38:12.927Z,11.10
2023-04-09T03:40:39.776Z,13.30
2023-04-09T03:43:06.152Z,12.73
2023-04-09T03:45:35.497Z,10.65
2023-04-09T03:48:14.586Z,12.70
2023-04-09T03:50:41.776Z,13.30
2023-04-09T03:55:38.048Z,13.10
2023-04-09T03:58:09.374Z,14.27
2023-04-09T04:00:36.950Z,12.50
2023-04-09T04:03:29.854Z,13.77
2023-04-09T04:06:13.360Z,14.65
2023-04-09T04:08:52.462Z,13.80
2023-04-09T04:11:22.605Z,12.48
2023-04-09T04:16:19.567Z,12.40
2023-04-09T04:18:46.118Z,12.45
2023-04-09T04:21:14.573Z,12.60
2023-04-09T04:23:44.457Z,13.43
2023-04-09T04:26:20.545Z,12.07
2023-04-09T04:28:47.006Z,11.07
2023-04-09T04:31:24.491Z,13.15
2023-04-09T04:33:51.786Z,13.05
2023-04-09T04:36:18.676Z,10.23
2023-04-09T04:38:48.110Z,12.05
2023-04-09T04:41:30.048Z,13.02
2023-04-09T04:44:07.544Z,11.60
2023-04-09T04:46:34.101Z,11.10
2023-04-09T04:49:00.719Z,12.70
2023-04-09T04:51:31.356Z,11.90
2023-04-09T04:54:09.806Z,11.70
2023-04-09T04:56:36.702Z,10.55
2023-04-09T04:59:10.663Z,10.75
2023-04-09T05:01:48.737Z,12.07
2023-04-09T05:04:15.367Z,10.90
2023-04-09T05:06:41.783Z,11.65
2023-04-09T05:09:12.932Z,12.52
2023-04-09T05:11:48.351Z,11.77
2023-04-09T05:14:21.249Z,11.50
2023-04-09T05:16:48.358Z,11.88
2023-04-09T05:19:16.554Z,11.32
2023-04-09T05:21:45.559Z,11.48
2023-04-09T05:24:19.679Z,11.75
2023-04-09T05:26:46.129Z,11.18
2023-04-09T05:29:12.857Z,12.00
2023-04-09T05:31:40.399Z,10.52
2023-04-09T05:34:11.967Z,11.60
2023-04-09T05:36:42.546Z,13.20
2023-04-09T05:39:09.634Z,12.07
2023-04-09T05:41:38.452Z,13.65
2023-04-09T05:44:21.914Z,8.15
2023-04-09T05:46:50.642Z,13.43
2023-04-09T05:49:21.484Z,13.48
2023-04-09T05:51:51.469Z,11.13
2023-04-09T05:54:23.744Z,14.00
2023-04-09T05:56:52.385Z,13.07
2023-04-09T05:59:19.359Z,12.52
2023-04-09T06:01:45.888Z,12.90
2023-04-09T06:04:12.528Z,10.10
2023-04-09T06:06:39.348Z,14.65
2023-04-09T06:09:05.939Z,14.65
2023-04-09T06:11:32.541Z,14.77
2023-04-09T06:14:00.294Z,11.93
2023-04-09T06:16:27.058Z,13.93
2023-04-09T06:18:54.580Z,13.18
2023-04-09T06:21:21.074Z,9.57
2023-04-09T06:23:47.483Z,11.23
2023-04-09T06:26:14.027Z,11.95
2023-04-09T06:28:40.460Z,12.02
2023-04-09T06:31:07.156Z,9.90
2023-04-09T06:33:33.689Z,16.38
2023-04-09T06:36:00.686Z,15.18
2023-04-09T06:38:27.184Z,9.90
2023-04-09T06:40:56.661Z,11.68
2023-04-09T06:43:23.237Z,5.85
2023-04-09T06:45:51.345Z,9.35
2023-04-09T06:48:17.805Z,11.07
2023-04-09T06:50:44.924Z,9.30
2023-04-09T06:53:11.458Z,10.27
2023-04-09T06:55:37.885Z,7.28
2023-04-09T06:58:04.306Z,9.57
2023-04-09T07:00:30.997Z,11.25
2023-04-09T07:02:57.782Z,6.93
2023-04-09T07:05:24.462Z,12.55
2023-04-09T07:07:51.160Z,5.78
2023-04-09T07:10:17.730Z,7.30
2023-04-09T07:12:44.220Z,10.75
2023-04-09T07:15:10.699Z,8.65
2023-04-09T07:17:37.185Z,7.70
2023-04-09T07:20:04.089Z,9.82
2023-04-09T07:22:31.055Z,10.63
2023-04-09T07:24:57.522Z,10.05
2023-04-09T07:27:26.373Z,8.75
2023-04-09T07:29:57.069Z,9.52
2023-04-09T07:32:24.395Z,9.20
2023-04-09T07:34:52.497Z,10.30
2023-04-09T07:37:19.316Z,9.60
2023-04-09T07:39:46.546Z,10.10
2023-04-09T07:42:13.535Z,9.80
2023-04-09T07:44:40.035Z,7.97
2023-04-09T07:47:08.351Z,10.23
2023-04-09T07:49:40.695Z,6.05
2023-04-09T07:52:07.481Z,9.77
2023-04-09T07:54:34.760Z,9.32
2023-04-09T07:57:04.120Z,9.32
2023-04-09T07:59:31.613Z,8.50
2023-04-09T08:01:59.032Z,8.98
2023-04-09T08:04:25.792Z,10.48
2023-04-09T08:06:53.533Z,8.38
2023-04-09T08:09:21.213Z,11.88
2023-04-09T08:11:49.568Z,10.32
2023-04-09T08:14:17.802Z,10.25
2023-04-09T08:16:46.242Z,10.00
2023-04-09T08:19:14.772Z,12.20
2023-04-09T08:21:45.036Z,11.65
2023-04-09T08:24:12.140Z,9.55
2023-04-09T08:26:39.917Z,11.93
2023-04-09T08:29:06.811Z,10.45
2023-04-09T08:31:33.634Z,11.90
2023-04-09T08:34:00.443Z,11.50
2023-04-09T08:36:27.646Z,12.25
2023-04-09T08:38:56.008Z,12.57
2023-04-09T08:41:24.753Z,13.02
2023-04-09T08:43:58.199Z,9.35
2023-04-09T08:46:26.431Z,11.48
2023-04-09T08:48:53.620Z,13.00
2023-04-09T08:51:23.646Z,10.60
2023-04-09T08:53:57.238Z,8.57
2023-04-09T08:56:24.000Z,10.20
2023-04-09T08:58:51.331Z,12.73
2023-04-09T09:01:25.499Z,12.05
2023-04-09T09:04:00.226Z,10.13
2023-04-09T09:06:29.841Z,11.85
2023-04-09T09:09:09.909Z,8.63
2023-04-09T09:11:38.194Z,9.18
2023-04-09T09:14:07.523Z,9.73
2023-04-09T09:16:42.654Z,12.10
2023-04-09T09:19:24.228Z,10.20
2023-04-09T09:22:01.818Z,11.43
2023-04-09T09:24:28.529Z,11.70
2023-04-09T09:26:55.595Z,11.70
2023-04-09T09:29:21.980Z,7.50
2023-04-09T09:31:52.889Z,11.70
2023-04-09T09:34:21.418Z,6.97
2023-04-09T09:36:48.047Z,9.65
2023-04-09T09:39:17.300Z,11.48
2023-04-09T09:41:48.722Z,8.48
2023-04-09T09:44:32.226Z,10.70
2023-04-09T09:46:59.377Z,8.23
2023-04-09T09:49:25.852Z,10.30
2023-04-09T09:51:53.374Z,8.55
2023-04-09T09:54:25.294Z,9.70
2023-04-09T09:56:53.730Z,7.63
2023-04-09T09:59:21.962Z,11.02
2023-04-09T10:01:53.504Z,9.77
2023-04-09T10:04:21.253Z,11.77
2023-04-09T10:06:50.235Z,9.38
2023-04-09T10:09:18.826Z,8.18
2023-04-09T10:11:47.936Z,10.50
2023-04-09T10:14:16.221Z,4.88
2023-04-09T10:16:43.221Z,10.43
2023-04-09T10:19:14.037Z,8.55
2023-04-09T10:21:48.499Z,10.95
2023-04-09T10:24:16.392Z,9.98
2023-04-09T10:26:44.972Z,9.88
2023-04-09T10:29:16.598Z,8.38
2023-04-09T10:32:03.174Z,8.68
2023-04-09T10:34:29.803Z,6.35
2023-04-09T10:36:57.882Z,6.28
2023-04-09T10:39:29.847Z,9.25
2023-04-09T10:41:58.012Z,8.45
2023-04-09T10:44:31.744Z,4.97
2023-04-09T10:46:58.812Z,6.20
2023-04-09T10:49:27.173Z,10.68
2023-04-09T10:51:54.744Z,6.70
2023-04-09T10:54:39.307Z,3.95
2023-04-09T10:57:08.839Z,5.43
2023-04-09T10:59:36.816Z,5.20
2023-04-09T11:02:09.191Z,7.07
2023-04-09T11:04:59.522Z,6.20
2023-04-09T11:07:27.684Z,6.45
2023-04-09T11:09:54.069Z,7.18
2023-04-09T11:12:20.503Z,3.55
2023-04-09T11:14:46.940Z,6.07
2023-04-09T11:17:13.721Z,5.40
2023-04-09T11:19:40.162Z,6.05
2023-04-09T11:22:06.970Z,4.70
2023-04-09T11:24:46.680Z,6.03
2023-04-09T11:27:13.275Z,3.60
2023-04-09T11:29:39.702Z,3.85
2023-04-09T11:32:06.356Z,6.45
2023-04-09T11:34:32.847Z,7.38
2023-04-09T11:37:02.102Z,6.40
2023-04-09T11:39:30.803Z,4.13
2023-04-09T11:41:57.787Z,5.13
2023-04-09T11:44:24.260Z,4.82
2023-04-09T11:46:50.971Z,6.68
2023-04-09T11:49:17.520Z,4.13
2023-04-09T11:51:44.122Z,5.07
2023-04-09T11:54:11.941Z,3.20
2023-04-09T11:56:38.416Z,7.05
2023-04-09T11:59:04.967Z,7.03
2023-04-09T12:01:34.359Z,7.03
2023-04-09T12:04:01.389Z,5.38
2023-04-09T12:06:28.512Z,5.88
2023-04-09T12:08:59.325Z,6.50
2023-04-09T12:11:31.285Z,5.55
2023-04-09T12:14:05.578Z,6.28
2023-04-09T12:16:34.228Z,6.22
2023-04-09T12:19:02.570Z,3.58
2023-04-09T12:21:50.262Z,4.78
2023-04-09T12:24:18.168Z,4.78
2023-04-09T12:26:48.643Z,5.72
2023-04-09T12:29:16.529Z,7.13
2023-04-09T12:31:44.715Z,3.95
2023-04-09T12:34:11.837Z,5.78
2023-04-09T12:36:39.105Z,5.28
2023-04-09T12:39:05.736Z,6.50
2023-04-09T12:41:32.223Z,8.77
2023-04-09T12:43:58.723Z,7.00
2023-04-09T12:46:25.871Z,6.30
2023-04-09T12:48:52.526Z,7.32
2023-04-09T12:51:19.136Z,6.97
2023-04-09T12:53:46.043Z,5.22
2023-04-09T12:56:12.487Z,5.68
2023-04-09T12:58:38.969Z,6.85
2023-04-09T13:01:05.977Z,5.45
2023-04-09T13:03:32.726Z,7.45
2023-04-09T13:05:59.450Z,5.78
2023-04-09T13:08:26.046Z,5.13
2023-04-09T13:10:52.673Z,5.95
2023-04-09T13:13:19.181Z,5.70
2023-04-09T13:15:46.230Z,6.32
2023-04-09T13:18:13.087Z,7.15
2023-04-09T13:20:39.746Z,4.22
2023-04-09T13:23:06.489Z,6.93
2023-04-09T13:25:40.638Z,4.57
2023-04-09T13:28:07.257Z,5.47
2023-04-09T13:30:34.005Z,6.70
2023-04-09T13:33:00.796Z,9.00
2023-04-09T13:35:45.775Z,4.65
2023-04-09T13:38:12.175Z,5.95
2023-04-09T13:40:38.580Z,7.43
2023-04-09T13:43:05.446Z,4.95
2023-04-09T13:45:31.926Z,4.80
2023-04-09T13:47:58.367Z,5.72
2023-04-09T13:50:24.842Z,4.53
2023-04-09T13:52:51.269Z,6.68
2023-04-09T13:55:17.821Z,7.03
2023-04-09T13:57:44.329Z,4.90
2023-04-09T14:00:11.142Z,6.13
2023-04-09T14:02:37.745Z,3.60
2023-04-09T14:05:05.430Z,4.97
2023-04-09T14:07:32.050Z,4.28
2023-04-09T14:09:58.536Z,4.50
2023-04-09T14:12:24.981Z,6.10
2023-04-09T14:14:51.918Z,5.32
2023-04-09T14:17:18.389Z,3.78
2023-04-09T14:19:44.891Z,4.07
2023-04-09T14:22:11.458Z,5.60
2023-04-09T14:24:40.094Z,5.15
2023-04-09T14:27:08.157Z,5.50
2023-04-09T14:29:35.223Z,5.07
2023-04-09T14:32:01.704Z,5.28
2023-04-09T14:34:31.511Z,3.65
2023-04-09T14:36:57.970Z,5.88
2023-04-09T14:39:24.415Z,4.50
2023-04-09T14:41:50.927Z,6.20
2023-04-09T14:44:17.512Z,4.68
2023-04-09T14:46:44.209Z,6.63
2023-04-09T14:49:10.668Z,4.10
2023-04-09T14:51:37.278Z,5.65
2023-04-09T14:54:03.855Z,5.10
2023-04-09T14:56:30.430Z,3.88
2023-04-09T14:58:56.909Z,3.42
2023-04-09T15:01:23.345Z,5.85
2023-04-09T15:03:49.907Z,6.00
2023-04-09T15:06:16.598Z,5.50
2023-04-09T15:08:44.394Z,7.13
2023-04-09T15:11:22.586Z,6.47
2023-04-09T15:13:49.088Z,5.55
2023-04-09T15:16:24.012Z,6.45
2023-04-09T15:18:52.282Z,4.82
2023-04-09T15:21:19.207Z,4.78
2023-04-09T15:23:46.214Z,2.28
2023-04-09T15:26:12.747Z,5.03
2023-04-09T15:28:39.232Z,3.25
2023-04-09T15:31:05.753Z,5.32
2023-04-09T15:33:32.447Z,3.83
2023-04-09T15:35:59.452Z,4.60
2023-04-09T15:38:26.058Z,3.85
2023-04-09T15:40:52.808Z,5.20
2023-04-09T15:43:19.261Z,4.15
2023-04-09T15:45:46.227Z,4.35
2023-04-09T15:48:12.695Z,5.88
2023-04-09T15:50:39.603Z,5.65
2023-04-09T15:53:06.430Z,4.88
2023-04-09T15:55:32.959Z,4.85
2023-04-09T15:58:02.376Z,5.60
2023-04-09T16:00:28.749Z,1.95
2023-04-09T16:02:55.382Z,4.30
2023-04-09T16:05:21.953Z,4.63
2023-04-09T16:07:51.942Z,5.07
2023-04-09T16:12:45.191Z,5.15
2023-04-09T16:15:11.908Z,5.13
2023-04-09T16:17:40.887Z,3.83
2023-04-09T16:20:08.423Z,6.00
2023-04-09T16:22:35.299Z,3.13
2023-04-09T16:25:01.813Z,5.65
2023-04-09T16:27:28.265Z,6.47
2023-04-09T16:29:54.742Z,4.25
2023-04-09T16:32:21.357Z,3.95
2023-04-09T16:34:47.782Z,3.80
2023-04-09T16:37:14.241Z,5.97
2023-04-09T16:39:40.734Z,4.80
2023-04-09T16:42:07.287Z,5.72
2023-04-09T16:44:33.745Z,3.78
2023-04-09T16:47:01.033Z,3.58
2023-04-09T16:49:27.475Z,6.72
2023-04-09T16:51:54.547Z,4.90
2023-04-09T16:54:21.187Z,6.25
2023-04-09T16:56:48.742Z,5.15
2023-04-09T16:59:17.305Z,4.80
2023-04-09T17:01:43.988Z,5.18
2023-04-09T17:04:10.746Z,5.80
2023-04-09T17:06:37.253Z,4.55
2023-04-09T17:09:05.255Z,5.45
2023-04-09T17:11:32.660Z,6.85
2023-04-09T17:13:59.108Z,6.70
2023-04-09T17:16:25.745Z,5.95
2023-04-09T17:18:52.344Z,7.25
2023-04-09T17:21:19.116Z,5.28
2023-04-09T17:23:45.705Z,5.20
2023-04-09T17:26:12.159Z,5.38
2023-04-09T17:28:38.590Z,6.47
2023-04-09T17:31:12.079Z,6.20
2023-04-09T17:33:38.613Z,6.80
2023-04-09T17:36:05.244Z,5.35
2023-04-09T17:38:31.911Z,4.07
2023-04-09T17:40:58.306Z,6.82
2023-04-09T17:43:24.780Z,6.63
2023-04-09T17:45:51.228Z,6.25
2023-04-09T17:48:17.841Z,6.30
2023-04-09T17:50:44.254Z,7.03
2023-04-09T17:53:10.643Z,4.72
2023-04-09T17:55:37.080Z,6.57
2023-04-09T17:58:03.658Z,6.18
2023-04-09T18:00:30.293Z,4.43
2023-04-09T18:02:57.383Z,6.00
2023-04-09T18:05:24.374Z,4.47
2023-04-09T18:07:51.773Z,6.55
2023-04-09T18:10:19.738Z,5.90
2023-04-09T18:12:46.261Z,6.82
2023-04-09T18:15:12.740Z,6.38
2023-04-09T18:17:39.211Z,5.82
2023-04-09T18:20:06.492Z,6.10
2023-04-09T18:22:33.640Z,6.15
2023-04-09T18:25:00.074Z,6.05
2023-04-09T18:27:26.614Z,4.70
2023-04-09T18:29:53.140Z,4.95
2023-04-09T18:32:19.869Z,5.82
2023-04-09T18:34:47.600Z,6.22
2023-04-09T18:37:14.904Z,4.88
2023-04-09T18:39:41.621Z,5.30
2023-04-09T18:42:08.094Z,6.43
2023-04-09T18:44:36.317Z,4.80
2023-04-09T18:47:06.705Z,6.05
2023-04-09T18:49:33.514Z,6.57
2023-04-09T18:52:00.567Z,6.70
2023-04-09T18:54:27.602Z,6.00
2023-04-09T18:56:54.045Z,7.07
2023-04-09T18:59:20.419Z,6.80
2023-04-09T19:01:46.967Z,6.97
2023-04-09T19:04:13.634Z,7.15
2023-04-09T19:06:40.824Z,6.93
2023-04-09T19:09:07.421Z,7.20
2023-04-09T19:11:33.930Z,5.93
2023-04-09T19:14:00.532Z,5.57
2023-04-09T19:16:27.267Z,5.43
2023-04-09T19:18:53.979Z,6.65
2023-04-09T19:21:20.635Z,7.00
2023-04-09T19:23:47.561Z,6.60
2023-04-09T19:26:14.354Z,7.13
2023-04-09T19:28:40.802Z,7.50
2023-04-09T19:31:07.966Z,7.30
2023-04-09T19:33:34.475Z,6.82
2023-04-09T19:36:00.975Z,5.13
2023-04-09T19:38:27.459Z,8.68
2023-04-09T19:40:53.886Z,7.63
2023-04-09T19:43:20.453Z,6.82
2023-04-09T19:45:46.926Z,7.43
2023-04-09T19:48:13.384Z,7.75
2023-04-09T19:50:46.426Z,6.22
2023-04-09T19:53:12.872Z,7.38
2023-04-09T19:55:39.371Z,8.50
2023-04-09T19:58:06.723Z,6.20
2023-04-09T20:00:34.496Z,8.73
2023-04-09T20:03:01.464Z,5.55
2023-04-09T20:05:28.585Z,7.90
2023-04-09T20:07:55.070Z,7.15
2023-04-09T20:10:21.481Z,6.57
2023-04-09T20:12:49.264Z,6.63
2023-04-09T20:15:17.566Z,5.40
2023-04-09T20:17:44.139Z,8.52
2023-04-09T20:20:11.646Z,6.70
2023-04-09T20:22:42.887Z,7.20
2023-04-09T20:25:11.762Z,5.47
2023-04-09T20:27:38.618Z,6.90
2023-04-09T20:30:06.191Z,7.10
2023-04-09T20:32:34.023Z,5.63
2023-04-09T20:35:00.468Z,5.60
2023-04-09T20:37:26.852Z,6.15
2023-04-09T20:39:53.313Z,7.45
2023-04-09T20:42:19.795Z,5.72
2023-04-09T20:44:46.197Z,6.70
2023-04-09T20:47:13.072Z,6.97
2023-04-09T20:49:39.557Z,7.72
2023-04-09T20:52:09.270Z,7.75
2023-04-09T20:54:36.274Z,7.05
2023-04-09T20:57:03.402Z,7.05
2023-04-09T20:59:29.999Z,7.78
2023-04-09T21:01:57.242Z,6.53
2023-04-09T21:04:25.494Z,7.20
2023-04-09T21:06:51.968Z,4.60
2023-04-09T21:09:18.477Z,7.18
2023-04-09T21:11:44.898Z,7.13
2023-04-09T21:14:13.381Z,6.45
2023-04-09T21:16:39.908Z,5.63
2023-04-09T21:19:09.287Z,7.75
2023-04-09T21:21:37.242Z,6.78
2023-04-09T21:24:04.014Z,6.72
2023-04-09T21:26:44.912Z,8.02
2023-04-09T21:29:16.188Z,8.27
2023-04-09T21:31:42.636Z,7.55
2023-04-09T21:34:09.206Z,8.30
2023-04-09T21:36:39.077Z,8.38
2023-04-09T21:39:05.828Z,6.95
2023-04-09T21:41:32.293Z,8.80
2023-04-09T21:44:03.267Z,7.95
2023-04-09T21:46:29.794Z,6.82
2023-04-09T21:48:56.307Z,9.90
2023-04-09T21:51:22.733Z,7.30
2023-04-09T21:53:49.681Z,7.63
2023-04-09T21:56:16.075Z,5.80
2023-04-09T21:58:42.524Z,7.50
2023-04-09T22:01:15.854Z,6.57
2023-04-09T22:03:45.693Z,7.60
2023-04-09T22:06:12.186Z,8.55
2023-04-09T22:08:54.971Z,8.80
2023-04-09T22:11:25.218Z,8.45
2023-04-09T22:13:51.691Z,9.52
2023-04-09T22:16:19.091Z,8.73
2023-04-09T22:18:45.610Z,10.48
2023-04-09T22:21:16.254Z,9.93
2023-04-09T22:23:43.107Z,9.05
2023-04-09T22:26:09.921Z,9.65
2023-04-09T22:28:36.352Z,10.57
2023-04-09T22:31:03.443Z,10.35
2023-04-09T22:33:29.871Z,12.15
2023-04-09T22:35:56.593Z,11.00
2023-04-09T22:38:26.040Z,10.10
2023-04-09T22:40:52.517Z,11.40
2023-04-09T22:43:19.546Z,11.73
2023-04-09T22:45:54.245Z,11.55
2023-04-09T22:48:22.754Z,11.60
2023-04-09T22:50:50.333Z,11.88
2023-04-09T22:53:21.870Z,9.77
2023-04-09T22:55:52.436Z,10.70
2023-04-09T22:58:19.119Z,8.93
2023-04-09T23:01:10.587Z,9.35
2023-04-09T23:07:03.660Z,7.18
2023-04-09T23:09:31.086Z,6.55
2023-04-09T23:11:57.499Z,8.35
2023-04-09T23:14:23.941Z,8.23
2023-04-09T23:16:50.368Z,8.95
2023-04-09T23:19:16.907Z,7.50
2023-04-09T23:21:43.568Z,7.18
2023-04-09T23:24:10.311Z,9.27
2023-04-09T23:26:36.764Z,10.35
2023-04-09T23:29:03.204Z,8.63
2023-04-09T23:31:29.724Z,9.82
2023-04-09T23:33:56.218Z,9.90
2023-04-09T23:36:24.105Z,7.13
2023-04-09T23:38:50.617Z,6.47
2023-04-09T23:41:17.061Z,6.15
2023-04-09T23:43:43.500Z,9.20
2023-04-09T23:46:09.893Z,6.55
2023-04-09T23:48:36.350Z,7.57
2023-04-09T23:51:02.738Z,8.55
2023-04-09T23:53:29.171Z,7.72
2023-04-09T23:55:55.640Z,8.25
2023-04-09T23:58:22.479Z,4.57
